createdAt,value
2018-05-13T00:02:32.137Z,57.60
2018-05-13T00:07:35.425Z,58.40
2018-05-13T00:12:38.667Z,56.60
2018-05-13T00:17:41.927Z,57.50
2018-05-13T00:22:45.187Z,57.40
2018-05-13T00:27:48.445Z,56.30
2018-05-13T00:32:52.464Z,57.60
2018-05-13T00:37:55.733Z,57.50
2018-05-13T00:42:58.980Z,57.10
2018-05-13T00:48:03.008Z,57.00
2018-05-13T00:53:07.033Z,57.00
2018-05-13T00:58:11.041Z,58.40
2018-05-13T01:03:14.353Z,58.30
2018-05-13T01:08:18.147Z,56.30
2018-05-13T01:13:21.399Z,55.60
2018-05-13T01:18:24.696Z,55.00
2018-05-13T01:23:27.928Z,54.50
2018-05-13T01:28:31.180Z,52.80
2018-05-13T01:33:34.554Z,51.20
2018-05-13T01:38:37.794Z,52.70
2018-05-13T01:43:41.063Z,52.00
2018-05-13T01:48:44.329Z,51.80
2018-05-13T01:53:47.691Z,52.70
2018-05-13T01:58:51.221Z,53.40
2018-05-13T02:03:54.488Z,52.70
2018-05-13T02:08:57.758Z,52.70
2018-05-13T02:14:01.032Z,51.50
2018-05-13T02:19:04.301Z,50.60
2018-05-13T02:24:08.332Z,59.20
2018-05-13T02:29:11.640Z,59.00
2018-05-13T02:34:14.905Z,57.60
2018-05-13T02:39:18.174Z,60.60
2018-05-13T02:44:21.448Z,56.90
2018-05-13T02:49:24.712Z,53.50
2018-05-13T02:54:27.967Z,52.40
2018-05-13T02:59:31.992Z,51.10
2018-05-13T03:04:35.263Z,51.10
2018-05-13T03:09:38.524Z,51.40
2018-05-13T03:14:41.775Z,51.00
2018-05-13T03:19:45.036Z,50.60
2018-05-13T03:24:49.063Z,50.80
2018-05-13T03:29:52.322Z,50.80
2018-05-13T03:34:55.623Z,56.20
2018-05-13T03:39:58.850Z,58.10
2018-05-13T03:45:02.105Z,64.00
2018-05-13T03:50:05.379Z,68.90
2018-05-13T03:55:08.635Z,64.10
2018-05-13T04:00:11.904Z,72.90
2018-05-13T04:05:15.151Z,66.70
2018-05-13T04:10:45.584Z,76.80
2018-05-13T04:15:48.837Z,79.90
2018-05-13T04:20:52.099Z,80.30
2018-05-13T04:25:55.360Z,78.40
2018-05-13T04:30:58.607Z,75.80
2018-05-13T04:36:02.618Z,73.70
2018-05-13T04:41:05.870Z,73.00
2018-05-13T04:46:09.151Z,77.60
2018-05-13T04:51:13.238Z,61.90
2018-05-13T04:56:17.259Z,58.60
2018-05-13T05:01:20.538Z,58.70
2018-05-13T05:06:23.792Z,57.30
2018-05-13T05:11:27.047Z,65.70
2018-05-13T05:16:30.295Z,60.70
2018-05-13T05:21:33.554Z,72.10
2018-05-13T05:26:36.803Z,70.70
2018-05-13T05:31:40.059Z,70.60
2018-05-13T05:36:43.308Z,79.00
2018-05-13T05:41:46.555Z,72.20
2018-05-13T05:46:49.815Z,62.90
2018-05-13T05:51:53.080Z,64.80
2018-05-13T05:56:56.344Z,59.00
2018-05-13T06:01:59.599Z,73.30
2018-05-13T06:07:03.619Z,72.80
2018-05-13T06:12:07.643Z,74.00
2018-05-13T06:17:11.062Z,75.00
2018-05-13T06:22:15.089Z,62.80
2018-05-13T06:27:19.120Z,67.80
2018-05-13T06:32:22.379Z,67.80
2018-05-13T06:37:26.416Z,66.50
2018-05-13T06:42:29.675Z,63.40
2018-05-13T06:47:32.948Z,62.00
2018-05-13T06:52:36.214Z,59.00
2018-05-13T06:57:39.492Z,59.40
2018-05-13T07:02:42.806Z,56.70
2018-05-13T07:07:46.057Z,56.00
2018-05-13T07:12:49.312Z,54.40
2018-05-13T07:17:53.355Z,54.90
2018-05-13T07:22:57.383Z,54.90
2018-05-13T07:28:00.656Z,54.80
2018-05-13T07:33:03.920Z,54.80
2018-05-13T07:38:07.190Z,52.10
2018-05-13T07:43:11.228Z,51.20
2018-05-13T07:48:14.493Z,51.10
2018-05-13T07:53:18.676Z,51.70
2018-05-13T07:58:21.943Z,51.30
2018-05-13T08:03:26.103Z,50.00
2018-05-13T08:08:29.363Z,50.50
2018-05-13T08:13:32.643Z,50.00
2018-05-13T08:18:35.911Z,52.60
2018-05-13T08:23:39.967Z,54.10
2018-05-13T08:28:43.249Z,54.00
2018-05-13T08:33:46.539Z,54.20
2018-05-13T08:38:49.811Z,53.90
2018-05-13T08:43:53.089Z,56.30
2018-05-13T08:48:56.364Z,60.10
2018-05-13T08:53:59.681Z,58.90
2018-05-13T08:59:02.907Z,60.10
2018-05-13T09:04:06.311Z,60.30
2018-05-13T09:09:10.344Z,66.70
2018-05-13T09:14:13.670Z,66.70
2018-05-13T09:19:16.916Z,74.20
2018-05-13T09:24:20.184Z,67.10
2018-05-13T09:29:23.443Z,63.20
2018-05-13T09:34:26.700Z,62.90
2018-05-13T09:39:30.071Z,64.80
2018-05-13T09:44:33.236Z,62.00
2018-05-13T09:49:36.487Z,62.70
2018-05-13T09:54:40.540Z,64.50
2018-05-13T09:59:43.840Z,64.30
2018-05-13T10:04:47.119Z,65.40
2018-05-13T10:09:50.384Z,68.00
2018-05-13T10:14:54.588Z,66.00
2018-05-13T10:19:58.823Z,67.50
2018-05-13T10:25:02.099Z,65.70
2018-05-13T10:30:05.369Z,70.60
2018-05-13T10:35:08.652Z,70.20
2018-05-13T10:40:11.915Z,66.80
2018-05-13T10:45:15.163Z,72.80
2018-05-13T10:50:18.432Z,73.60
2018-05-13T10:55:21.695Z,70.20
2018-05-13T11:00:24.959Z,70.00
2018-05-13T11:05:28.223Z,77.00
2018-05-13T11:10:31.520Z,79.80
2018-05-13T11:15:36.247Z,74.10
2018-05-13T11:20:39.586Z,71.40
2018-05-13T11:25:42.763Z,71.90
2018-05-13T11:30:46.019Z,71.40
2018-05-13T11:35:49.296Z,70.10
2018-05-13T11:40:52.571Z,74.40
2018-05-13T11:45:56.595Z,72.50
2018-05-13T11:50:59.859Z,72.50
2018-05-13T11:56:03.132Z,76.40
2018-05-13T12:01:06.401Z,71.50
2018-05-13T12:06:09.672Z,71.70
2018-05-13T12:11:12.940Z,73.20
2018-05-13T12:16:16.205Z,72.50
2018-05-13T12:21:19.481Z,74.70
2018-05-13T12:26:22.747Z,71.60
2018-05-13T12:31:25.990Z,69.50
2018-05-13T12:36:29.264Z,70.00
2018-05-13T12:41:32.541Z,70.70
2018-05-13T12:46:35.799Z,72.80
2018-05-13T12:51:39.833Z,72.60
2018-05-13T12:56:43.088Z,72.60
2018-05-13T13:01:46.361Z,71.70
2018-05-13T13:06:49.630Z,73.70
2018-05-13T13:11:52.879Z,74.60
2018-05-13T13:16:56.901Z,75.70
2018-05-13T13:22:00.160Z,75.40
2018-05-13T13:27:03.442Z,76.90
2018-05-13T13:32:06.699Z,75.70
2018-05-13T13:37:09.962Z,71.60
2018-05-13T13:42:13.239Z,71.20
2018-05-13T13:47:16.513Z,73.00
2018-05-13T13:52:19.762Z,73.70
2018-05-13T13:57:23.036Z,73.30
2018-05-13T14:02:26.856Z,73.60
2018-05-13T14:07:30.207Z,72.10
2018-05-13T14:12:33.492Z,72.10
2018-05-13T14:17:37.547Z,73.50
2018-05-13T14:22:40.823Z,74.30
2018-05-13T14:27:44.873Z,75.10
2018-05-13T14:32:48.145Z,75.00
2018-05-13T14:37:51.409Z,72.80
2018-05-13T14:42:54.701Z,72.20
2018-05-13T14:47:58.699Z,73.30
2018-05-13T14:53:02.738Z,72.70
2018-05-13T14:58:06.037Z,72.60
2018-05-13T15:03:09.260Z,71.90
2018-05-13T15:08:12.543Z,72.70
2018-05-13T15:13:16.567Z,75.50
2018-05-13T15:18:20.730Z,75.40
2018-05-13T15:23:23.987Z,76.50
2018-05-13T15:28:27.254Z,77.30
2018-05-13T15:33:30.520Z,77.40
2018-05-13T15:38:35.063Z,76.70
2018-05-13T15:43:40.862Z,75.10
2018-05-13T15:48:44.134Z,74.70
2018-05-13T15:53:48.468Z,74.60
2018-05-13T15:58:52.512Z,75.30
2018-05-13T16:03:55.903Z,75.80
2018-05-13T16:08:59.226Z,76.60
2018-05-13T16:14:05.073Z,75.10
2018-05-13T16:19:08.644Z,75.00
2018-05-13T16:24:12.567Z,77.50
2018-05-13T16:29:15.833Z,77.50
2018-05-13T16:34:19.106Z,79.50
2018-05-13T16:39:22.376Z,76.70
2018-05-13T16:44:25.656Z,76.60
2018-05-13T16:49:28.969Z,77.50
2018-05-13T16:54:32.216Z,77.60
2018-05-13T16:59:35.471Z,78.00
2018-05-13T17:04:38.790Z,77.20
2018-05-13T17:09:47.235Z,76.30
2018-05-13T17:14:50.514Z,76.50
2018-05-13T17:19:54.585Z,75.80
2018-05-13T17:24:58.608Z,76.30
2018-05-13T17:30:01.872Z,76.30
2018-05-13T17:35:05.145Z,76.30
2018-05-13T17:40:08.452Z,77.80
2018-05-13T17:45:11.711Z,78.80
2018-05-13T17:50:15.767Z,78.80
2018-05-13T17:55:19.055Z,78.70
2018-05-13T18:00:22.347Z,78.70
2018-05-13T18:05:25.621Z,77.90
2018-05-13T18:10:28.916Z,78.80
2018-05-13T18:15:32.191Z,78.70
2018-05-13T18:20:36.223Z,78.70
2018-05-13T18:25:40.267Z,78.60
2018-05-13T18:30:43.532Z,78.50
2018-05-13T18:35:47.713Z,79.20
2018-05-13T18:40:51.014Z,77.60
2018-05-13T18:45:54.280Z,77.80
2018-05-13T18:50:57.580Z,77.30
2018-05-13T18:56:00.865Z,75.90
2018-05-13T19:01:04.136Z,76.30
2018-05-13T19:06:08.171Z,78.10
2018-05-13T19:11:11.514Z,78.10
2018-05-13T19:16:14.827Z,78.70
2018-05-13T19:21:18.089Z,78.50
2018-05-13T19:26:22.108Z,77.30
2018-05-13T19:31:25.403Z,77.20
2018-05-13T19:36:28.664Z,77.00
2018-05-13T19:41:31.968Z,76.70
2018-05-13T19:46:35.255Z,76.60
2018-05-13T19:51:38.543Z,78.00
2018-05-13T19:56:42.581Z,80.40
2018-05-13T20:01:45.929Z,80.30
2018-05-13T20:06:50.135Z,81.20
2018-05-13T20:11:53.407Z,81.10
2018-05-13T20:16:56.684Z,81.60
2018-05-13T20:21:59.951Z,81.30
2018-05-13T20:27:03.212Z,80.60
2018-05-13T20:32:06.484Z,80.80
2018-05-13T20:37:09.751Z,81.70
2018-05-13T20:42:13.853Z,82.40
2018-05-13T20:47:17.143Z,82.40
2018-05-13T20:52:20.415Z,81.40
2018-05-13T20:57:23.695Z,80.00
2018-05-13T21:02:26.984Z,80.80
2018-05-13T21:07:30.259Z,81.40
2018-05-13T21:12:36.862Z,81.10
2018-05-13T21:17:41.675Z,80.00
2018-05-13T21:22:44.946Z,80.00
2018-05-13T21:27:48.238Z,79.70
2018-05-13T21:32:52.120Z,79.50
2018-05-13T21:37:55.407Z,79.80
2018-05-13T21:42:59.432Z,80.40
2018-05-13T21:48:04.019Z,80.40
2018-05-13T21:53:07.329Z,81.20
2018-05-13T21:58:10.599Z,82.10
2018-05-13T22:03:14.645Z,81.40
2018-05-13T22:08:17.912Z,81.40
2018-05-13T22:13:23.199Z,81.40
2018-05-13T22:18:28.409Z,81.20
2018-05-13T22:23:31.675Z,81.70
2018-05-13T22:28:36.001Z,81.80
2018-05-13T22:33:39.253Z,82.70
2018-05-13T22:38:42.548Z,82.30
2018-05-13T22:43:45.839Z,83.90
2018-05-13T22:48:49.120Z,83.00
2018-05-13T22:53:54.089Z,81.50
2018-05-13T22:58:57.346Z,81.40
2018-05-13T23:04:00.687Z,80.50
2018-05-13T23:09:05.731Z,81.90
2018-05-13T23:14:14.582Z,82.00
2018-05-13T23:19:18.304Z,82.30
2018-05-13T23:24:21.575Z,82.60
2018-05-13T23:29:24.847Z,82.60
2018-05-13T23:34:28.208Z,82.90
2018-05-13T23:39:32.205Z,84.20
2018-05-13T23:44:35.497Z,84.30
2018-05-13T23:49:38.805Z,84.10
2018-05-13T23:54:42.096Z,85.40
2018-05-13T23:59:45.391Z,85.90
